createdAt,value
2023-11-15T00:01:14.881Z,87.24
2023-11-15T00:03:42.377Z,86.33
2023-11-15T00:06:09.851Z,86.80
2023-11-15T00:08:37.335Z,87.66
2023-11-15T00:11:05.161Z,87.49
2023-11-15T00:13:32.103Z,87.00
2023-11-15T00:15:59.256Z,86.04
2023-11-15T00:18:26.641Z,85.73
2023-11-15T00:20:54.273Z,86.01
2023-11-15T00:23:21.230Z,86.50
2023-11-15T00:25:48.257Z,87.14
2023-11-15T00:28:15.416Z,86.23
2023-11-15T00:30:42.382Z,85.66
2023-11-15T00:33:10.094Z,85.69
2023-11-15T00:35:37.126Z,85.73
2023-11-15T00:38:05.488Z,86.74
2023-11-15T00:40:32.576Z,86.83
2023-11-15T00:43:00.087Z,86.12
2023-11-15T00:45:27.084Z,87.52
2023-11-15T00:47:54.327Z,87.48
2023-11-15T00:50:21.448Z,87.88
2023-11-15T00:52:48.332Z,88.17
2023-11-15T00:55:15.342Z,88.30
2023-11-15T00:57:42.344Z,87.82
2023-11-15T01:00:25.163Z,86.97
2023-11-15T01:02:57.023Z,87.84
2023-11-15T01:05:30.180Z,87.55
2023-11-15T01:07:59.161Z,86.98
2023-11-15T01:10:28.893Z,86.52
2023-11-15T01:12:55.993Z,86.37
2023-11-15T01:15:23.311Z,86.20
2023-11-15T01:17:51.453Z,87.19
2023-11-15T01:20:19.092Z,87.84
2023-11-15T01:22:46.850Z,88.43
2023-11-15T01:25:14.771Z,87.73
2023-11-15T01:27:41.688Z,87.86
2023-11-15T01:30:10.150Z,89.55
2023-11-15T01:32:37.376Z,89.07
2023-11-15T01:35:06.944Z,89.43
2023-11-15T01:37:34.083Z,88.50
2023-11-15T01:40:07.853Z,87.68
2023-11-15T01:42:35.291Z,88.42
2023-11-15T01:45:04.097Z,88.82
2023-11-15T01:47:31.555Z,88.78
2023-11-15T01:50:00.942Z,89.13
2023-11-15T01:52:29.860Z,87.85
2023-11-15T01:54:57.959Z,87.08
2023-11-15T01:57:24.968Z,86.77
2023-11-15T01:59:52.699Z,86.87
2023-11-15T02:02:19.843Z,86.26
2023-11-15T02:04:46.767Z,86.34
2023-11-15T02:07:13.788Z,87.37
2023-11-15T02:09:42.355Z,87.81
2023-11-15T02:12:10.545Z,88.50
2023-11-15T02:14:38.946Z,88.45
2023-11-15T02:17:09.447Z,86.72
2023-11-15T02:19:37.929Z,86.92
2023-11-15T02:22:05.010Z,88.67
2023-11-15T02:24:32.639Z,87.73
2023-11-15T02:26:59.679Z,87.84
2023-11-15T02:29:26.757Z,88.23
2023-11-15T02:31:53.742Z,88.10
2023-11-15T02:34:20.766Z,89.60
2023-11-15T02:36:47.705Z,89.80
2023-11-15T02:39:15.034Z,89.29
2023-11-15T02:41:42.554Z,88.23
2023-11-15T02:44:11.576Z,89.00
2023-11-15T02:46:38.726Z,89.03
2023-11-15T02:49:05.764Z,90.69
2023-11-15T02:51:32.806Z,89.06
2023-11-15T02:53:59.896Z,89.26
2023-11-15T02:56:27.258Z,88.98
2023-11-15T02:58:54.190Z,88.00
2023-11-15T03:01:21.204Z,87.42
2023-11-15T03:03:48.297Z,87.93
2023-11-15T03:06:15.482Z,87.42
2023-11-15T03:08:42.405Z,87.64
2023-11-15T03:11:09.758Z,86.94
2023-11-15T03:13:36.818Z,87.08
2023-11-15T03:16:03.999Z,87.65
2023-11-15T03:18:31.130Z,88.55
2023-11-15T03:20:58.200Z,88.45
2023-11-15T03:23:26.084Z,88.55
2023-11-15T03:25:53.082Z,89.50
2023-11-15T03:28:20.083Z,89.65
2023-11-15T03:30:47.040Z,89.49
2023-11-15T03:33:14.098Z,88.11
2023-11-15T03:35:41.079Z,88.74
2023-11-15T03:38:08.110Z,89.38
2023-11-15T03:40:35.389Z,89.26
2023-11-15T03:43:02.386Z,87.92
2023-11-15T03:45:29.387Z,89.52
2023-11-15T03:47:56.469Z,89.96
2023-11-15T03:50:23.465Z,89.74
2023-11-15T03:52:50.446Z,91.28
2023-11-15T03:55:18.296Z,91.20
2023-11-15T03:57:47.657Z,90.09
2023-11-15T04:00:18.155Z,91.03
2023-11-15T04:02:46.717Z,90.07
2023-11-15T04:05:14.579Z,90.42
2023-11-15T04:07:43.358Z,90.34
2023-11-15T04:10:11.741Z,89.38
2023-11-15T04:12:39.329Z,89.41
2023-11-15T04:15:10.574Z,90.23
2023-11-15T04:17:37.921Z,90.92
2023-11-15T04:20:08.293Z,90.39
2023-11-15T04:22:35.465Z,90.96
2023-11-15T04:25:02.390Z,89.27
2023-11-15T04:27:31.449Z,89.27
2023-11-15T04:29:59.189Z,88.98
2023-11-15T04:32:26.454Z,89.23
2023-11-15T04:34:56.094Z,89.53
2023-11-15T04:37:23.096Z,92.26
2023-11-15T04:39:50.019Z,92.24
2023-11-15T04:42:19.283Z,90.69
2023-11-15T04:44:46.796Z,90.59
2023-11-15T04:47:13.990Z,90.78
2023-11-15T04:49:42.338Z,90.41
2023-11-15T04:52:09.474Z,89.52
2023-11-15T04:54:36.399Z,90.04
2023-11-15T04:57:04.835Z,89.14
2023-11-15T04:59:33.100Z,88.90
2023-11-15T05:02:00.265Z,87.98
2023-11-15T05:04:27.641Z,88.87
2023-11-15T05:06:57.085Z,89.40
2023-11-15T05:09:32.976Z,88.86
2023-11-15T05:12:00.067Z,89.63
2023-11-15T05:14:30.090Z,90.32
2023-11-15T05:16:57.107Z,90.61
2023-11-15T05:19:24.054Z,89.70
2023-11-15T05:21:51.101Z,90.16
2023-11-15T05:24:18.085Z,90.56
2023-11-15T05:26:46.574Z,89.49
2023-11-15T05:29:13.545Z,89.79
2023-11-15T05:31:40.490Z,87.72
2023-11-15T05:34:07.541Z,85.62
2023-11-15T05:36:34.466Z,83.78
2023-11-15T05:39:01.586Z,84.85
2023-11-15T05:41:29.845Z,85.77
2023-11-15T05:43:57.093Z,86.05
2023-11-15T05:46:24.104Z,85.91
2023-11-15T05:48:51.114Z,85.84
2023-11-15T05:51:18.170Z,86.09
2023-11-15T05:53:46.252Z,85.40
2023-11-15T05:56:14.774Z,82.70
2023-11-15T05:58:43.897Z,84.50
2023-11-15T06:01:12.367Z,85.58
2023-11-15T06:03:39.484Z,84.17
2023-11-15T06:06:06.947Z,84.58
2023-11-15T06:08:33.955Z,85.12
2023-11-15T06:11:01.178Z,86.58
2023-11-15T06:13:28.091Z,87.62
2023-11-15T06:15:55.032Z,88.31
2023-11-15T06:18:23.033Z,87.74
2023-11-15T06:20:51.311Z,86.47
2023-11-15T06:23:18.322Z,84.50
2023-11-15T06:25:45.664Z,87.11
2023-11-15T06:28:12.773Z,87.67
2023-11-15T06:30:39.896Z,87.88
2023-11-15T06:33:07.083Z,87.14
2023-11-15T06:35:34.072Z,87.54
2023-11-15T06:38:02.512Z,88.98
2023-11-15T06:40:29.502Z,90.91
2023-11-15T06:42:56.554Z,89.40
2023-11-15T06:45:23.682Z,88.78
2023-11-15T06:47:51.864Z,88.14
2023-11-15T06:50:19.923Z,87.70
2023-11-15T06:52:47.010Z,86.88
2023-11-15T06:55:13.908Z,88.08
2023-11-15T06:57:42.787Z,87.00
2023-11-15T07:00:12.564Z,85.47
2023-11-15T07:02:42.437Z,83.36
2023-11-15T07:05:11.454Z,81.87
2023-11-15T07:07:38.672Z,79.86
2023-11-15T07:10:06.924Z,80.18
2023-11-15T07:12:36.798Z,80.49
2023-11-15T07:15:05.343Z,83.24
2023-11-15T07:17:33.486Z,84.72
2023-11-15T07:20:00.765Z,85.27
2023-11-15T07:22:27.708Z,86.81
2023-11-15T07:24:54.677Z,87.73
2023-11-15T07:27:25.404Z,86.66
2023-11-15T07:29:53.439Z,86.42
2023-11-15T07:32:20.928Z,85.59
2023-11-15T07:34:48.625Z,83.92
2023-11-15T07:37:15.565Z,83.30
2023-11-15T07:39:42.602Z,84.81
2023-11-15T07:42:09.572Z,85.10
2023-11-15T07:44:37.283Z,85.33
2023-11-15T07:47:04.442Z,80.47
2023-11-15T07:49:31.437Z,80.37
2023-11-15T07:51:58.379Z,80.80
2023-11-15T07:54:25.389Z,80.04
2023-11-15T07:56:52.669Z,78.10
2023-11-15T07:59:22.964Z,78.56
2023-11-15T08:01:50.174Z,79.37
2023-11-15T08:04:17.475Z,78.39
2023-11-15T08:06:44.862Z,80.98
2023-11-15T08:09:25.978Z,80.91
2023-11-15T08:11:54.659Z,78.39
2023-11-15T08:14:22.958Z,80.22
2023-11-15T08:16:54.572Z,78.62
2023-11-15T08:19:21.711Z,78.40
2023-11-15T08:21:49.268Z,78.38
2023-11-15T08:24:22.898Z,76.78
2023-11-15T08:26:54.379Z,74.77
2023-11-15T08:29:22.774Z,73.89
2023-11-15T08:31:50.597Z,74.59
2023-11-15T08:34:22.102Z,74.02
2023-11-15T08:36:50.681Z,75.33
2023-11-15T08:39:18.325Z,75.58
2023-11-15T08:41:48.088Z,74.71
2023-11-15T08:44:16.743Z,74.61
2023-11-15T08:46:46.289Z,75.82
2023-11-15T08:49:14.066Z,76.19
2023-11-15T08:51:42.368Z,76.33
2023-11-15T08:54:11.601Z,76.97
2023-11-15T08:56:44.154Z,77.52
2023-11-15T08:59:15.569Z,78.05
2023-11-15T09:01:43.944Z,78.89
2023-11-15T09:04:14.350Z,78.02
2023-11-15T09:06:48.890Z,79.46
2023-11-15T09:09:17.279Z,81.15
2023-11-15T09:11:44.692Z,80.49
2023-11-15T09:14:11.907Z,79.12
2023-11-15T09:16:38.861Z,78.70
2023-11-15T09:19:06.078Z,78.05
2023-11-15T09:21:34.829Z,78.50
2023-11-15T09:24:02.535Z,78.07
2023-11-15T09:26:29.642Z,77.31
2023-11-15T09:28:56.594Z,77.03
2023-11-15T09:31:24.668Z,76.80
2023-11-15T09:33:53.300Z,75.19
2023-11-15T09:36:20.560Z,75.38
2023-11-15T09:38:47.578Z,75.50
2023-11-15T09:41:14.882Z,76.51
2023-11-15T09:43:45.591Z,76.91
2023-11-15T09:46:14.036Z,76.25
2023-11-15T09:48:53.145Z,76.38
2023-11-15T09:51:33.572Z,75.86
2023-11-15T09:54:12.512Z,75.61
2023-11-15T09:56:45.805Z,76.40
2023-11-15T09:59:13.202Z,76.46
2023-11-15T10:01:45.917Z,76.71
2023-11-15T10:04:27.147Z,77.58
2023-11-15T10:07:04.033Z,77.07
2023-11-15T10:09:37.739Z,77.64
2023-11-15T10:12:05.482Z,77.61
2023-11-15T10:14:34.183Z,78.17
2023-11-15T10:17:08.269Z,78.14
2023-11-15T10:19:35.784Z,77.36
2023-11-15T10:22:06.112Z,77.70
2023-11-15T10:24:36.069Z,77.18
2023-11-15T10:27:09.117Z,77.01
2023-11-15T10:29:40.429Z,74.93
2023-11-15T10:32:08.077Z,72.08
2023-11-15T10:34:49.945Z,69.70
2023-11-15T10:37:17.770Z,66.89
2023-11-15T10:39:51.218Z,66.57
2023-11-15T10:42:20.096Z,65.24
2023-11-15T10:44:49.565Z,63.66
2023-11-15T10:47:20.891Z,61.35
2023-11-15T10:49:54.766Z,58.55
2023-11-15T10:52:23.475Z,58.24
2023-11-15T10:54:52.746Z,57.78
2023-11-15T10:57:22.366Z,56.80
2023-11-15T10:59:51.344Z,57.32
2023-11-15T11:02:18.966Z,58.68
2023-11-15T11:04:48.922Z,58.81
2023-11-15T11:07:27.786Z,59.40
2023-11-15T11:10:03.997Z,59.21
2023-11-15T11:12:32.380Z,58.75
2023-11-15T11:15:36.555Z,58.25
2023-11-15T11:18:05.698Z,56.73
2023-11-15T11:20:37.335Z,57.50
2023-11-15T11:23:23.510Z,54.85
2023-11-15T11:25:53.058Z,54.13
2023-11-15T11:28:22.889Z,54.25
2023-11-15T11:31:27.189Z,52.33
2023-11-15T11:34:10.915Z,55.54
2023-11-15T11:36:51.550Z,55.88
2023-11-15T11:39:25.454Z,57.42
2023-11-15T11:41:52.694Z,57.47
2023-11-15T11:44:19.951Z,56.43
2023-11-15T11:47:03.515Z,55.35
2023-11-15T11:49:46.727Z,54.83
2023-11-15T11:52:18.563Z,54.88
2023-11-15T11:54:47.852Z,54.68
2023-11-15T11:57:23.142Z,54.48
2023-11-15T12:00:19.004Z,55.30
2023-11-15T12:05:26.156Z,55.81
2023-11-15T12:07:55.266Z,55.46
2023-11-15T12:10:22.270Z,58.46
2023-11-15T12:12:55.488Z,57.84
2023-11-15T12:15:25.983Z,57.92
2023-11-15T12:17:59.210Z,57.26
2023-11-15T12:20:41.220Z,57.02
2023-11-15T12:23:10.027Z,59.08
2023-11-15T12:25:50.480Z,60.34
2023-11-15T12:28:32.322Z,60.91
2023-11-15T12:31:05.091Z,63.39
2023-11-15T12:33:35.492Z,61.35
2023-11-15T12:36:07.724Z,63.33
2023-11-15T12:38:34.780Z,64.10
2023-11-15T12:41:06.964Z,64.94
2023-11-15T12:43:35.102Z,65.29
2023-11-15T12:46:17.265Z,64.16
2023-11-15T12:48:48.956Z,66.00
2023-11-15T12:51:16.776Z,64.19
2023-11-15T12:53:43.967Z,65.58
2023-11-15T12:56:21.074Z,64.63
2023-11-15T12:58:49.414Z,64.76
2023-11-15T13:01:19.632Z,66.31
2023-11-15T13:03:48.300Z,65.00
2023-11-15T13:06:20.308Z,65.44
2023-11-15T13:08:50.551Z,65.44
2023-11-15T13:11:28.161Z,65.33
2023-11-15T13:13:55.707Z,65.32
2023-11-15T13:16:25.423Z,63.65
2023-11-15T13:18:52.526Z,64.09
2023-11-15T13:21:23.460Z,63.62
2023-11-15T13:23:55.385Z,63.04
2023-11-15T13:26:25.626Z,63.13
2023-11-15T13:28:54.413Z,62.76
2023-11-15T13:31:26.494Z,62.24
2023-11-15T13:33:57.088Z,61.67
2023-11-15T13:36:25.745Z,61.53
2023-11-15T13:38:53.460Z,61.10
2023-11-15T13:41:24.708Z,61.78
2023-11-15T13:43:53.868Z,60.94
2023-11-15T13:46:24.544Z,60.66
2023-11-15T13:48:53.990Z,61.52
2023-11-15T13:51:22.636Z,61.49
2023-11-15T13:53:49.769Z,62.09
2023-11-15T13:56:16.768Z,60.20
2023-11-15T13:58:43.729Z,60.41
2023-11-15T14:01:12.704Z,60.21
2023-11-15T14:03:40.121Z,60.65
2023-11-15T14:06:08.377Z,61.49
2023-11-15T14:08:50.868Z,61.12
2023-11-15T14:11:23.884Z,60.84
2023-11-15T14:13:50.882Z,60.79
2023-11-15T14:16:17.979Z,59.94
2023-11-15T14:18:48.944Z,58.94
2023-11-15T14:21:16.481Z,59.60
2023-11-15T14:23:43.616Z,59.11
2023-11-15T14:26:11.483Z,59.40
2023-11-15T14:28:38.499Z,59.66
2023-11-15T14:31:06.206Z,59.41
2023-11-15T14:33:33.938Z,60.12
2023-11-15T14:36:01.041Z,58.98
2023-11-15T14:38:28.079Z,59.69
2023-11-15T14:40:56.779Z,59.27
2023-11-15T14:43:24.032Z,58.87
2023-11-15T14:45:51.533Z,56.42
2023-11-15T14:48:18.661Z,56.31
2023-11-15T14:50:45.735Z,57.20
2023-11-15T14:53:24.647Z,56.61
2023-11-15T14:55:54.753Z,57.06
2023-11-15T14:58:26.626Z,57.56
2023-11-15T15:00:53.844Z,56.46
2023-11-15T15:03:23.761Z,57.82
2023-11-15T15:05:53.056Z,54.89
2023-11-15T15:08:22.880Z,56.57
2023-11-15T15:10:54.701Z,55.96
2023-11-15T15:13:22.478Z,57.62
2023-11-15T15:15:49.579Z,57.81
2023-11-15T15:18:21.732Z,57.04
2023-11-15T15:20:52.900Z,58.57
2023-11-15T15:23:21.364Z,59.20
2023-11-15T15:25:48.624Z,59.91
2023-11-15T15:28:15.946Z,59.83
2023-11-15T15:30:44.536Z,59.40
2023-11-15T15:33:12.116Z,59.25
2023-11-15T15:35:39.576Z,59.46
2023-11-15T15:38:08.920Z,60.77
2023-11-15T15:40:39.938Z,60.27
2023-11-15T15:43:16.725Z,61.47
2023-11-15T15:45:46.379Z,61.52
2023-11-15T15:48:14.128Z,63.19
2023-11-15T15:50:42.678Z,63.34
2023-11-15T15:53:10.567Z,63.09
2023-11-15T15:55:37.993Z,63.79
2023-11-15T15:58:07.010Z,64.03
2023-11-15T16:00:36.500Z,64.75
2023-11-15T16:03:03.527Z,60.63
2023-11-15T16:05:30.557Z,62.51
2023-11-15T16:07:58.341Z,62.10
2023-11-15T16:10:26.881Z,61.72
2023-11-15T16:12:53.886Z,59.90
2023-11-15T16:15:21.145Z,59.88
2023-11-15T16:17:50.110Z,57.88
2023-11-15T16:20:21.126Z,57.19
2023-11-15T16:22:48.121Z,57.48
2023-11-15T16:25:16.321Z,56.56
2023-11-15T16:27:43.387Z,57.48
2023-11-15T16:30:15.207Z,57.35
2023-11-15T16:32:47.526Z,56.49
2023-11-15T16:35:15.684Z,57.63
2023-11-15T16:37:43.342Z,58.27
2023-11-15T16:40:11.700Z,57.59
2023-11-15T16:42:40.050Z,58.06
2023-11-15T16:45:08.660Z,58.06
2023-11-15T16:47:37.181Z,58.27
2023-11-15T16:50:05.097Z,57.45
2023-11-15T16:52:34.444Z,58.22
2023-11-15T16:55:02.700Z,57.56
2023-11-15T16:57:29.779Z,57.67
2023-11-15T16:59:58.632Z,58.14
2023-11-15T17:02:25.729Z,58.15
2023-11-15T17:04:53.266Z,57.61
2023-11-15T17:07:20.303Z,54.60
2023-11-15T17:09:50.639Z,54.47
2023-11-15T17:12:19.042Z,54.50
2023-11-15T17:14:46.234Z,53.25
2023-11-15T17:17:16.478Z,55.27
2023-11-15T17:19:44.083Z,54.72
2023-11-15T17:22:11.209Z,53.25
2023-11-15T17:24:38.229Z,54.60
2023-11-15T17:27:05.239Z,53.48
2023-11-15T17:29:33.386Z,52.99
2023-11-15T17:32:03.708Z,52.63
2023-11-15T17:34:30.774Z,52.47
2023-11-15T17:36:57.871Z,52.30
2023-11-15T17:39:26.631Z,54.09
2023-11-15T17:41:56.932Z,52.20
2023-11-15T17:44:24.264Z,53.40
2023-11-15T17:46:51.792Z,54.60
2023-11-15T17:49:18.891Z,52.86
2023-11-15T17:51:46.454Z,53.00
2023-11-15T17:54:15.635Z,53.73
2023-11-15T17:56:43.069Z,49.83
2023-11-15T17:59:10.129Z,51.27
2023-11-15T18:01:40.002Z,54.58
2023-11-15T18:04:15.176Z,53.39
2023-11-15T18:06:43.011Z,54.61
2023-11-15T18:09:11.522Z,52.74
2023-11-15T18:11:39.351Z,51.88
2023-11-15T18:14:07.538Z,52.83
2023-11-15T18:16:34.666Z,55.22
2023-11-15T18:19:09.207Z,54.13
2023-11-15T18:21:36.639Z,53.85
2023-11-15T18:24:03.761Z,54.75
2023-11-15T18:26:35.829Z,53.85
2023-11-15T18:29:02.883Z,54.25
2023-11-15T18:31:30.092Z,54.79
2023-11-15T18:33:58.159Z,55.43
2023-11-15T18:36:25.828Z,54.36
2023-11-15T18:38:53.149Z,55.07
2023-11-15T18:41:20.219Z,56.12
2023-11-15T18:43:47.313Z,57.09
2023-11-15T18:46:14.588Z,56.60
2023-11-15T18:48:41.822Z,56.29
2023-11-15T18:51:09.182Z,54.61
2023-11-15T18:53:36.159Z,54.64
2023-11-15T18:56:03.208Z,53.43
2023-11-15T18:58:30.119Z,53.19
2023-11-15T19:00:58.133Z,54.02
2023-11-15T19:03:26.286Z,54.02
2023-11-15T19:05:55.651Z,53.66
2023-11-15T19:08:24.339Z,56.60
2023-11-15T19:10:55.480Z,54.65
2023-11-15T19:13:22.998Z,56.15
2023-11-15T19:15:51.920Z,54.18
2023-11-15T19:18:20.519Z,55.02
2023-11-15T19:20:47.566Z,55.58
2023-11-15T19:23:16.462Z,54.06
2023-11-15T19:25:43.441Z,53.62
2023-11-15T19:28:10.447Z,55.29
2023-11-15T19:30:37.450Z,53.57
2023-11-15T19:33:04.581Z,54.74
2023-11-15T19:35:31.781Z,55.94
2023-11-15T19:37:58.836Z,55.32
2023-11-15T19:40:25.923Z,54.09
2023-11-15T19:42:52.981Z,54.75
2023-11-15T19:45:21.731Z,56.05
2023-11-15T19:47:49.076Z,53.98
2023-11-15T19:50:16.963Z,55.82
2023-11-15T19:52:45.465Z,56.01
2023-11-15T19:55:14.726Z,55.76
2023-11-15T19:57:41.914Z,54.22
2023-11-15T20:00:13.305Z,55.50
2023-11-15T20:02:46.717Z,55.54
2023-11-15T20:05:16.354Z,54.93
2023-11-15T20:07:43.745Z,52.22
2023-11-15T20:10:11.001Z,55.55
2023-11-15T20:12:42.424Z,52.85
2023-11-15T20:15:15.311Z,53.50
2023-11-15T20:17:43.385Z,54.83
2023-11-15T20:20:11.055Z,53.76
2023-11-15T20:22:45.870Z,52.83
2023-11-15T20:25:20.049Z,53.37
2023-11-15T20:27:47.068Z,53.22
2023-11-15T20:30:14.828Z,53.48
2023-11-15T20:32:42.263Z,54.57
2023-11-15T20:35:09.684Z,55.54
2023-11-15T20:37:36.717Z,54.60
2023-11-15T20:40:06.294Z,55.65
2023-11-15T20:42:33.936Z,54.61
2023-11-15T20:45:01.734Z,54.42
2023-11-15T20:47:28.941Z,54.28
2023-11-15T20:49:56.133Z,54.91
2023-11-15T20:52:25.902Z,53.58
2023-11-15T20:54:53.089Z,54.53
2023-11-15T20:57:20.753Z,53.87
2023-11-15T20:59:47.759Z,54.32
2023-11-15T21:02:15.543Z,54.29
2023-11-15T21:04:43.286Z,53.87
2023-11-15T21:07:11.471Z,54.53
2023-11-15T21:09:39.791Z,54.06
2023-11-15T21:12:07.105Z,54.85
2023-11-15T21:14:34.614Z,52.67
2023-11-15T21:17:01.626Z,54.17
2023-11-15T21:19:28.673Z,52.88
2023-11-15T21:21:56.134Z,53.03
2023-11-15T21:24:23.531Z,53.76
2023-11-15T21:26:55.340Z,54.80
2023-11-15T21:29:23.922Z,54.84
2023-11-15T21:31:54.711Z,53.45
2023-11-15T21:34:21.868Z,54.72
2023-11-15T21:36:49.052Z,52.21
2023-11-15T21:39:16.201Z,55.00
2023-11-15T21:41:43.273Z,54.24
2023-11-15T21:44:10.205Z,54.00
2023-11-15T21:46:38.410Z,52.84
2023-11-15T21:49:05.483Z,54.43
2023-11-15T21:51:32.743Z,54.66
2023-11-15T21:54:01.460Z,54.85
2023-11-15T21:56:28.462Z,52.30
2023-11-15T21:58:55.504Z,51.89
2023-11-15T22:01:22.991Z,53.70
2023-11-15T22:03:50.126Z,53.94
2023-11-15T22:06:17.309Z,55.18
2023-11-15T22:08:44.571Z,55.24
2023-11-15T22:11:12.034Z,53.57
2023-11-15T22:13:39.026Z,53.72
2023-11-15T22:16:06.556Z,53.77
2023-11-15T22:18:33.665Z,53.74
2023-11-15T22:21:00.679Z,55.21
2023-11-15T22:23:27.637Z,53.34
2023-11-15T22:25:54.998Z,54.37
2023-11-15T22:28:21.953Z,54.76
2023-11-15T22:30:50.679Z,55.79
2023-11-15T22:33:18.021Z,55.42
2023-11-15T22:35:49.648Z,53.58
2023-11-15T22:38:17.053Z,54.69
2023-11-15T22:40:44.148Z,53.40
2023-11-15T22:43:11.643Z,54.10
2023-11-15T22:45:38.654Z,54.89
2023-11-15T22:48:06.207Z,56.06
2023-11-15T22:50:34.297Z,56.42
2023-11-15T22:53:01.385Z,55.89
2023-11-15T22:55:28.470Z,56.25
2023-11-15T22:57:55.411Z,56.01
2023-11-15T23:00:35.101Z,54.97
2023-11-15T23:03:12.004Z,54.80
2023-11-15T23:05:41.946Z,55.60
2023-11-15T23:08:10.268Z,54.48
2023-11-15T23:10:38.661Z,53.97
2023-11-15T23:13:05.976Z,54.43
2023-11-15T23:15:34.077Z,54.44
2023-11-15T23:18:01.246Z,55.59
2023-11-15T23:20:28.342Z,55.75
2023-11-15T23:22:56.654Z,54.85
2023-11-15T23:25:27.295Z,56.52
2023-11-15T23:27:57.214Z,56.26
2023-11-15T23:30:27.916Z,54.83
2023-11-15T23:32:55.033Z,55.54
2023-11-15T23:35:23.357Z,55.32
2023-11-15T23:37:51.013Z,53.30
2023-11-15T23:40:19.178Z,51.84
2023-11-15T23:42:49.048Z,52.90
2023-11-15T23:45:16.093Z,53.77
2023-11-15T23:47:43.517Z,55.86
2023-11-15T23:50:10.924Z,53.50
2023-11-15T23:52:37.953Z,55.52
2023-11-15T23:55:05.524Z,54.43
2023-11-15T23:57:35.833Z,55.21
